Wednesday, July 30, 2014
21:23 UTC
  |  Log In   |  Register Free
Airport Search:

Jackson-Evers International Airport
(KJAN)

Jackson-Evers International Airport Diagram
No Airport Diagram Available

FAA data valid effective July 24, 2014 until September 18, 2014 (unless otherwise noted).

 
 
 
 
 
 
 
 
 
 
 
 
 
 

Current Aviation Weather for Jackson-Evers International Airport (KJAN)

The most recent METAR observation for KJAN was updated at: 1754 UTC
METAR Summary (Translated METAR)
KJAN
281754Z VRB05KT 10SM FEW025 SCT050 33/23 A3004 RMK AO2 SLP166 T03330228 10333 20261 58008
KHKS
(7.6 nm NW from KJAN)
281753Z 30009G14KT 270V330 10SM CLR 32/22 A3005 RMK AO2 SLP166 T03220217 10322 20261 58006
TAF Summary (Translated TAF)
KJAN
301723Z 3018/3118 03004KT P6SM SKC
KHKS
(7.6 nm NW from KJAN)
301723Z 3018/3118 02004KT P6SM SKC
  Airport Weather Conditions for KJAN

 Current Weather at JAN
85° F
A Few Clouds
North winds at 6.9 mph
JAN NOAA Radar

Pressure: 30.05 in
Humidity: 39%
Wind: North at 6.9 MPH (6 KT)
Dew Point: 57.0°F
Visibility: 10.00 mi


Airport Weather Forecast for KJAN

Translated METAR and TAF for KJAN
Translated METAR for KJAN (2116 UTC 30 July 2014)
found at http://aviationweather.gov/adds/metars/
 
METAR text: KJAN 302054Z 02006KT 10SM FEW300 29/14 A3005 RMK AO2 SLP172 T02940139 57013
Conditions at: KJAN (JACKSON , MS, US) observed 2054 UTC 30 July 2014
Temperature: 29.4°C (85°F)
Dewpoint: 13.9°C (57°F) [RH = 39%]
Pressure (altimeter): 30.05 inches Hg (1017.7 mb)
[Sea-level pressure: 1017.2 mb]
Winds: from the NNE (20 degrees) at 7 MPH (6 knots; 3.1 m/s)
Visibility: 10 or more miles (16+ km)
Ceiling: at least 12,000 feet AGL
Clouds: few clouds at 30000 feet AGL
Weather: no significant weather observed at this time
Translated TAF for KJAN
Forecast for: KJAN (JACKSON , MS, US)
TAF Text: KJAN 301723Z 3018/3118 03004KT P6SM SKC
Forecast period: 1800 UTC 30 July 2014 to 1800 UTC 31 July 2014
Forecast type: FROM: standard forecast or significant change
Winds: from the NNE (30 degrees) at 5 MPH (4 knots; 2.1 m/s)
Visibility: 6 or more miles (10+ km)
Clouds: clear skies
Weather: no significant weather forecast for this period

Find All Airport Services Find A Hotel Find A Rental Car Find A Golf Course Find A Restaurant $100 Hamburger



FBO's on the Field
FBO Company Facility Photos Services Transportation Aviation Fuel Prices: Prices include tax
Catering Weather Repair Courtesy Rental Type 100LL JetA JetA+ MOGAS 8087
 
Atlantic Aviation

This FBO has not yet been rated
FS:Chevron
Last Updated: Jul-30
Login to update fuel prices
SS:
Contact Atlantic AviationMore FBO Information
 
Add another FBO Facility Photos Catering Weather Repair Courtesy Rental Type 100LL JetA JetA+ MOGAS 8087
Services Transportation Aviation Fuel Prices: Prices include tax


GlobalAir.com Airport Resource Center model-print
model-print
model-print
model-print